Time;durP1;ratioP1;P1;durP2;ratioP2;P2;SDS_P1;SDS_P2;PMS_P1;PMS_P2;Temp;Humidity;BMP_temperature;BMP_pressure;BME280_temperature;BME280_humidity;BME280_pressure;Samples;Min_cycle;Max_cycle;Signal;HPM_P1;HPM_P2
2023/02/07 00:01:02;;;;;;;41.67;13.63;;;;;;;;;;5042621;28;20029;-79
2023/02/07 00:03:28;;;;;;;42.03;13.30;;;;;;;;;;5028678;28;20021;-76
2023/02/07 00:05:56;;;;;;;42.07;15.03;;;;;;;;;;5042485;28;20292;-77
2023/02/07 00:08:22;;;;;;;39.00;13.97;;;;;;;;;;5043881;28;20037;-78
2023/02/07 00:10:48;;;;;;;39.53;13.30;;;;;;;;;;5042848;28;20295;-79
2023/02/07 00:13:14;;;;;;;37.97;13.43;;;;;;;;;;5029147;28;20029;-78
2023/02/07 00:15:40;;;;;;;35.37;13.03;;;;;;;;;;5042879;28;20464;-78
2023/02/07 00:18:06;;;;;;;34.97;14.03;;;;;;;;;;5042842;28;20034;-79
2023/02/07 00:20:32;;;;;;;35.80;13.77;;;;;;;;;;5042380;28;20430;-78
2023/02/07 00:22:58;;;;;;;47.17;14.87;;;;;;;;;;5042991;28;20037;-79
2023/02/07 00:25:24;;;;;;;38.27;14.77;;;;;;;;;;5043521;28;20283;-78
2023/02/07 00:27:50;;;;;;;45.20;14.77;;;;;;;;;;5044744;28;20033;-79
2023/02/07 00:30:16;;;;;;;41.73;14.60;;;;;;;;;;5042417;28;20303;-78
2023/02/07 00:32:42;;;;;;;35.63;14.83;;;;;;;;;;5025060;28;20315;-79
2023/02/07 00:35:08;;;;;;;35.67;13.97;;;;;;;;;;5041442;28;20280;-79
2023/02/07 00:37:34;;;;;;;35.43;13.93;;;;;;;;;;5029958;28;20117;-78
2023/02/07 00:40:00;;;;;;;37.33;14.97;;;;;;;;;;5042057;28;20422;-78
2023/02/07 00:42:26;;;;;;;35.33;14.07;;;;;;;;;;5044889;28;20276;-79
2023/02/07 00:44:52;;;;;;;36.23;14.37;;;;;;;;;;5044042;28;20420;-79
2023/02/07 00:47:18;;;;;;;40.30;14.07;;;;;;;;;;5044620;28;20041;-78
2023/02/07 00:49:46;;;;;;;37.67;14.77;;;;;;;;;;5044913;28;20334;-78
2023/02/07 00:52:12;;;;;;;33.77;13.57;;;;;;;;;;5025422;28;20042;-79
2023/02/07 00:54:38;;;;;;;31.53;12.47;;;;;;;;;;5040318;28;20763;-78
2023/02/07 00:57:04;;;;;;;47.00;14.67;;;;;;;;;;5045490;28;20037;-78
2023/02/07 00:59:30;;;;;;;32.47;14.27;;;;;;;;;;5043020;28;20129;-79
2023/02/07 01:01:56;;;;;;;40.77;12.87;;;;;;;;;;5043227;28;20283;-79
2023/02/07 01:04:22;;;;;;;41.67;16.93;;;;;;;;;;5041705;28;20037;-80
2023/02/07 01:06:48;;;;;;;43.60;15.53;;;;;;;;;;5026426;28;20034;-77
2023/02/07 01:09:14;;;;;;;39.07;14.87;;;;;;;;;;5025891;28;20280;-78
2023/02/07 01:11:40;;;;;;;37.83;14.80;;;;;;;;;;5028255;28;20093;-78
2023/02/07 01:14:06;;;;;;;35.83;14.13;;;;;;;;;;5042503;28;20733;-78
2023/02/07 01:16:33;;;;;;;34.70;14.10;;;;;;;;;;5027036;28;20363;-80
2023/02/07 01:19:02;;;;;;;31.90;13.27;;;;;;;;;;5040933;28;20271;-77
2023/02/07 01:21:28;;;;;;;32.70;13.53;;;;;;;;;;5043926;28;20347;-78
2023/02/07 01:23:55;;;;;;;32.57;13.47;;;;;;;;;;5027048;28;20366;-78
2023/02/07 01:26:21;;;;;;;35.27;14.40;;;;;;;;;;5044677;28;20033;-77
2023/02/07 01:28:48;;;;;;;37.40;14.50;;;;;;;;;;5048834;28;20376;-79
2023/02/07 01:31:14;;;;;;;34.10;13.80;;;;;;;;;;5042498;28;20303;-79
2023/02/07 01:33:40;;;;;;;30.50;13.87;;;;;;;;;;5043646;28;20303;-77
2023/02/07 01:36:11;;;;;;;30.57;13.47;;;;;;;;;;5028791;28;20582;-78
2023/02/07 01:38:37;;;;;;;33.37;13.00;;;;;;;;;;5031701;28;20277;-78
2023/02/07 01:41:03;;;;;;;38.90;14.17;;;;;;;;;;5042853;28;20340;-78
2023/02/07 01:43:29;;;;;;;35.87;13.07;;;;;;;;;;5043638;28;20295;-78
2023/02/07 01:45:55;;;;;;;30.43;14.77;;;;;;;;;;5027131;28;20342;-78
2023/02/07 01:48:29;;;;;;;32.60;13.40;;;;;;;;;;5041416;28;20293;-79
2023/02/07 01:50:56;;;;;;;32.00;14.23;;;;;;;;;;5030062;28;20161;-77
2023/02/07 01:53:24;;;;;;;36.37;14.53;;;;;;;;;;5042031;28;20285;-80
2023/02/07 01:55:54;;;;;;;31.73;12.63;;;;;;;;;;5044267;28;20327;-79
2023/02/07 01:58:20;;;;;;;30.40;13.23;;;;;;;;;;5040703;28;20368;-78
2023/02/07 02:00:46;;;;;;;33.70;12.47;;;;;;;;;;5039360;28;20284;-79
2023/02/07 02:03:12;;;;;;;30.07;12.67;;;;;;;;;;5026443;28;20284;-78
2023/02/07 02:05:39;;;;;;;36.90;12.73;;;;;;;;;;5042169;28;20756;-77
2023/02/07 02:08:05;;;;;;;34.07;13.03;;;;;;;;;;5045287;28;20499;-79
2023/02/07 02:10:57;;;;;;;35.47;12.53;;;;;;;;;;5046998;28;20345;-79
2023/02/07 02:13:30;;;;;;;30.55;13.63;;;;;;;;;;5032614;28;20319;-78
2023/02/07 02:15:56;;;;;;;31.40;12.00;;;;;;;;;;5044707;28;20113;-79
2023/02/07 02:18:35;;;;;;;32.53;12.27;;;;;;;;;;5032964;28;20117;-78
2023/02/07 02:21:01;;;;;;;29.50;13.00;;;;;;;;;;5047093;28;20043;-79
2023/02/07 02:23:33;;;;;;;28.30;12.50;;;;;;;;;;5046658;28;20351;-79
2023/02/07 02:26:05;;;;;;;33.95;11.88;;;;;;;;;;5047570;28;20033;-79
2023/02/07 02:28:37;;;;;;;28.63;12.68;;;;;;;;;;5045450;28;20025;-79
2023/02/07 02:31:11;;;;;;;33.30;12.55;;;;;;;;;;5044923;28;20029;-79
2023/02/07 02:33:48;;;;;;;30.87;11.67;;;;;;;;;;5043086;28;20136;-80
2023/02/07 02:36:23;;;;;;;32.27;12.87;;;;;;;;;;5046010;28;20296;-79
2023/02/07 02:39:11;;;;;;;41.47;14.37;;;;;;;;;;5045342;28;20275;-78
2023/02/07 02:41:39;;;;;;;40.70;12.20;;;;;;;;;;5044180;28;20264;-78
2023/02/07 02:44:12;;;;;;;35.60;13.83;;;;;;;;;;5047241;28;20740;-79
2023/02/07 02:46:38;;;;;;;;;;;;;;;;;;5037884;28;20260;-78
2023/02/07 02:49:06;;;;;;;27.23;11.17;;;;;;;;;;5038540;28;19966;-79
2023/02/07 02:51:34;;;;;;;33.07;12.67;;;;;;;;;;5044483;28;20061;-79
2023/02/07 02:54:01;;;;;;;29.57;11.37;;;;;;;;;;5056017;28;20361;-78
2023/02/07 02:56:27;;;;;;;38.57;14.80;;;;;;;;;;5037503;28;20343;-79
2023/02/07 02:58:56;;;;;;;33.33;13.73;;;;;;;;;;5037401;28;20929;-78
2023/02/07 03:01:25;;;;;;;34.53;13.13;;;;;;;;;;5050204;28;20025;-79
2023/02/07 03:04:10;;;;;;;38.33;13.87;;;;;;;;;;5040932;28;20276;-78
2023/02/07 03:06:49;;;;;;;32.90;13.47;;;;;;;;;;5048275;28;20275;-79
2023/02/07 03:09:24;;;;;;;38.10;12.47;;;;;;;;;;5035078;28;20276;-80
2023/02/07 03:12:08;;;;;;;34.53;13.70;;;;;;;;;;5051611;28;20263;-79
2023/02/07 03:14:43;;;;;;;31.87;12.87;;;;;;;;;;5038454;28;20280;-78
2023/02/07 03:17:09;;;;;;;32.77;13.50;;;;;;;;;;5036978;28;20272;-78
2023/02/07 03:19:41;;;;;;;36.70;14.23;;;;;;;;;;5049310;28;20271;-78
2023/02/07 03:22:12;;;;;;;40.95;14.05;;;;;;;;;;5038306;28;20040;-79
2023/02/07 03:24:43;;;;;;;33.20;13.17;;;;;;;;;;5038944;28;20041;-78
2023/02/07 03:27:10;;;;;;;33.63;13.63;;;;;;;;;;5052450;28;20272;-79
2023/02/07 03:29:38;;;;;;;32.97;13.93;;;;;;;;;;5057034;28;20270;-79
2023/02/07 03:32:05;;;;;;;43.13;14.13;;;;;;;;;;5051893;28;20274;-79
2023/02/07 03:34:43;;;;;;;33.33;13.40;;;;;;;;;;5046507;28;20287;-77
2023/02/07 03:37:12;;;;;;;39.43;13.50;;;;;;;;;;5043080;28;20700;-79
2023/02/07 03:39:39;;;;;;;38.57;13.50;;;;;;;;;;5039334;28;20328;-78
2023/02/07 03:42:07;;;;;;;37.23;15.17;;;;;;;;;;5040273;28;20355;-79
2023/02/07 03:44:35;;;;;;;32.73;13.47;;;;;;;;;;5038496;28;21582;-78
2023/02/07 03:47:01;;;;;;;37.80;13.97;;;;;;;;;;5055602;28;20272;-78
2023/02/07 03:49:27;;;;;;;30.70;13.53;;;;;;;;;;5070623;28;20282;-79
2023/02/07 03:51:53;;;;;;;31.47;13.17;;;;;;;;;;5042142;28;20264;-78
2023/02/07 03:54:19;;;;;;;38.53;12.53;;;;;;;;;;5040564;28;20292;-79
2023/02/07 03:56:45;;;;;;;38.83;13.43;;;;;;;;;;5049037;28;20465;-78
2023/02/07 03:59:11;;;;;;;28.97;12.83;;;;;;;;;;5036301;28;20260;-78
2023/02/07 04:01:42;;;;;;;32.97;13.63;;;;;;;;;;5037200;28;20338;-78
2023/02/07 04:04:09;;;;;;;33.87;12.37;;;;;;;;;;5037094;28;20272;-79
2023/02/07 04:06:37;;;;;;;33.90;13.57;;;;;;;;;;5036163;28;20268;-79
2023/02/07 04:09:03;;;;;;;37.37;14.67;;;;;;;;;;5035922;28;20304;-79
2023/02/07 04:11:29;;;;;;;37.53;13.33;;;;;;;;;;5036156;28;20275;-79
2023/02/07 04:13:56;;;;;;;31.90;13.60;;;;;;;;;;5035806;28;20272;-79
2023/02/07 04:16:22;;;;;;;34.13;13.00;;;;;;;;;;5036612;28;20252;-79
2023/02/07 04:18:48;;;;;;;30.83;13.37;;;;;;;;;;5035523;28;20303;-78
2023/02/07 04:21:14;;;;;;;33.93;13.20;;;;;;;;;;5043982;28;20280;-79
2023/02/07 04:23:39;;;;;;;37.63;13.10;;;;;;;;;;5025544;28;20481;-78
2023/02/07 04:26:08;;;;;;;39.40;13.40;;;;;;;;;;5043549;28;20099;-78
2023/02/07 04:28:34;;;;;;;35.90;14.47;;;;;;;;;;5029305;28;20831;-79
2023/02/07 04:31:00;;;;;;;38.20;15.03;;;;;;;;;;5042704;28;20283;-77
2023/02/07 04:33:31;;;;;;;36.00;14.03;;;;;;;;;;5043071;28;20105;-79
2023/02/07 04:35:58;;;;;;;36.10;13.73;;;;;;;;;;5045542;28;20478;-77
2023/02/07 04:38:25;;;;;;;43.43;15.97;;;;;;;;;;5027042;28;20277;-77
2023/02/07 04:40:51;;;;;;;43.17;14.70;;;;;;;;;;5043588;28;20268;-78
2023/02/07 04:43:17;;;;;;;30.47;13.83;;;;;;;;;;5044027;28;20347;-77
2023/02/07 04:45:45;;;;;;;41.90;15.30;;;;;;;;;;5025126;28;20338;-78
2023/02/07 04:48:11;;;;;;;30.93;14.50;;;;;;;;;;5042929;28;20286;-77
2023/02/07 04:50:37;;;;;;;36.83;14.77;;;;;;;;;;5026543;28;20280;-77
2023/02/07 04:53:03;;;;;;;38.27;14.73;;;;;;;;;;5041757;28;20037;-77
2023/02/07 04:55:33;;;;;;;35.70;14.93;;;;;;;;;;5044345;28;20292;-77
2023/02/07 04:57:59;;;;;;;36.23;13.53;;;;;;;;;;5044994;28;20302;-77
2023/02/07 05:00:25;;;;;;;38.47;14.37;;;;;;;;;;5040771;28;20740;-77
2023/02/07 05:02:51;;;;;;;40.33;15.80;;;;;;;;;;5041855;28;20057;-77
2023/02/07 05:05:17;;;;;;;37.17;13.33;;;;;;;;;;5025710;28;20025;-77
2023/02/07 05:07:45;;;;;;;37.03;15.13;;;;;;;;;;5024624;28;20084;-77
2023/02/07 05:10:11;;;;;;;45.17;15.67;;;;;;;;;;5042300;28;20651;-78
2023/02/07 05:12:37;;;;;;;38.30;15.03;;;;;;;;;;5043623;28;20763;-79
2023/02/07 05:15:03;;;;;;;46.17;15.80;;;;;;;;;;5027860;28;20288;-77
2023/02/07 05:17:33;;;;;;;38.80;15.17;;;;;;;;;;5043445;28;20272;-76
2023/02/07 05:19:59;;;;;;;37.30;15.00;;;;;;;;;;5026480;28;20728;-77
2023/02/07 05:22:25;;;;;;;37.33;15.00;;;;;;;;;;5025727;28;20356;-78
2023/02/07 05:24:51;;;;;;;38.20;15.47;;;;;;;;;;5024190;28;20280;-78
2023/02/07 05:27:17;;;;;;;36.10;14.57;;;;;;;;;;5026097;28;20344;-78
2023/02/07 05:29:43;;;;;;;28.23;13.80;;;;;;;;;;5043605;28;20072;-79
2023/02/07 05:35:02;;;;;;;39.97;14.63;;;;;;;;;;5025262;28;20483;-79
2023/02/07 05:37:28;;;;;;;30.83;12.87;;;;;;;;;;5040616;28;20276;-78
2023/02/07 05:39:54;;;;;;;31.37;14.20;;;;;;;;;;5042366;28;20299;-77
2023/02/07 05:42:20;;;;;;;39.17;14.27;;;;;;;;;;5044308;28;22225;-78
2023/02/07 05:44:46;;;;;;;38.77;17.57;;;;;;;;;;5027356;28;20052;-79
2023/02/07 05:47:12;;;;;;;41.90;17.37;;;;;;;;;;5041263;28;20717;-78
2023/02/07 05:49:38;;;;;;;33.20;15.73;;;;;;;;;;5027029;28;20029;-78
2023/02/07 05:52:06;;;;;;;36.60;16.27;;;;;;;;;;5042848;28;20033;-76
2023/02/07 05:54:32;;;;;;;62.00;22.70;;;;;;;;;;5039804;28;20284;-79
2023/02/07 05:56:58;;;;;;;33.73;13.87;;;;;;;;;;5041681;28;20290;-78
2023/02/07 05:59:24;;;;;;;36.40;15.70;;;;;;;;;;5024349;28;20041;-78
2023/02/07 06:01:50;;;;;;;37.93;14.60;;;;;;;;;;5029842;28;21580;-78
2023/02/07 06:04:16;;;;;;;39.00;14.10;;;;;;;;;;5038865;28;20300;-77
2023/02/07 06:06:42;;;;;;;39.33;14.03;;;;;;;;;;5041485;28;20454;-78
2023/02/07 06:09:08;;;;;;;36.63;14.70;;;;;;;;;;5042598;28;20282;-78
2023/02/07 06:11:34;;;;;;;34.10;14.13;;;;;;;;;;5038479;28;20836;-77
2023/02/07 06:14:00;;;;;;;34.63;14.13;;;;;;;;;;5028393;28;20288;-79
2023/02/07 06:16:28;;;;;;;29.30;12.83;;;;;;;;;;5043215;28;20272;-78
2023/02/07 06:18:54;;;;;;;40.30;14.47;;;;;;;;;;5045068;28;20280;-78
2023/02/07 06:21:20;;;;;;;32.17;15.77;;;;;;;;;;5026942;28;20319;-78
2023/02/07 06:23:48;;;;;;;34.03;13.70;;;;;;;;;;5025667;28;20057;-78
2023/02/07 06:26:14;;;;;;;31.23;14.47;;;;;;;;;;5041637;28;20022;-77
2023/02/07 06:28:40;;;;;;;32.63;13.90;;;;;;;;;;5025941;28;20330;-78
2023/02/07 06:31:06;;;;;;;26.10;12.53;;;;;;;;;;5045139;28;20272;-78
2023/02/07 06:33:35;;;;;;;25.80;11.83;;;;;;;;;;5045493;28;20737;-78
2023/02/07 06:36:01;;;;;;;32.30;14.40;;;;;;;;;;5043522;28;20036;-76
2023/02/07 06:38:27;;;;;;;28.97;13.00;;;;;;;;;;5045252;28;20656;-76
2023/02/07 06:40:53;;;;;;;26.90;12.50;;;;;;;;;;5042216;28;20079;-78
2023/02/07 06:43:19;;;;;;;31.20;12.57;;;;;;;;;;5039133;28;20272;-78
2023/02/07 06:45:45;;;;;;;29.03;13.73;;;;;;;;;;5038626;28;20284;-78
2023/02/07 06:48:13;;;;;;;23.03;11.33;;;;;;;;;;5045421;28;20280;-78
2023/02/07 06:50:39;;;;;;;24.27;11.17;;;;;;;;;;5026646;28;20833;-78
2023/02/07 06:53:05;;;;;;;30.10;11.57;;;;;;;;;;5026190;28;20277;-77
2023/02/07 06:55:32;;;;;;;27.60;11.40;;;;;;;;;;5028401;28;20304;-78
2023/02/07 06:57:58;;;;;;;26.43;12.07;;;;;;;;;;5045548;28;20276;-77
2023/02/07 07:00:24;;;;;;;30.50;15.03;;;;;;;;;;5028536;28;20289;-79
2023/02/07 07:02:51;;;;;;;24.20;12.83;;;;;;;;;;5043902;28;20977;-77
2023/02/07 07:05:17;;;;;;;29.03;11.43;;;;;;;;;;5028176;28;20288;-79
2023/02/07 07:07:43;;;;;;;21.87;10.60;;;;;;;;;;5044763;28;20372;-78
2023/02/07 07:10:10;;;;;;;24.80;11.93;;;;;;;;;;5047402;28;20374;-78
2023/02/07 07:12:36;;;;;;;23.27;10.77;;;;;;;;;;5047831;28;20608;-77
2023/02/07 07:15:02;;;;;;;23.00;10.60;;;;;;;;;;5047889;28;20303;-79
2023/02/07 07:17:28;;;;;;;24.23;11.80;;;;;;;;;;5049124;28;20806;-79
2023/02/07 07:19:54;;;;;;;29.00;14.27;;;;;;;;;;5030104;28;20679;-76
2023/02/07 07:22:23;;;;;;;28.30;13.57;;;;;;;;;;5043009;28;20292;-78
2023/02/07 07:24:49;;;;;;;27.63;12.80;;;;;;;;;;5033097;28;20034;-79
2023/02/07 07:27:15;;;;;;;24.47;11.63;;;;;;;;;;5044767;28;20276;-77
2023/02/07 07:29:41;;;;;;;22.57;12.03;;;;;;;;;;5044854;28;20353;-79
2023/02/07 07:32:10;;;;;;;25.87;11.13;;;;;;;;;;5027879;28;20040;-78
2023/02/07 07:34:36;;;;;;;25.87;11.80;;;;;;;;;;5043696;28;20320;-77
2023/02/07 07:37:04;;;;;;;44.03;16.20;;;;;;;;;;5026207;28;20319;-76
2023/02/07 07:39:31;;;;;;;29.23;14.03;;;;;;;;;;5043439;28;20055;-77
2023/02/07 07:41:59;;;;;;;28.53;13.97;;;;;;;;;;5047021;28;20264;-78
2023/02/07 07:44:25;;;;;;;28.83;12.17;;;;;;;;;;5042015;28;20284;-78
2023/02/07 07:46:51;;;;;;;30.17;12.83;;;;;;;;;;5045576;28;21016;-78
2023/02/07 07:49:17;;;;;;;24.10;11.47;;;;;;;;;;5043036;28;20041;-78
2023/02/07 07:51:43;;;;;;;27.40;12.60;;;;;;;;;;5026418;28;20287;-78
2023/02/07 07:54:09;;;;;;;30.10;13.03;;;;;;;;;;5045506;28;20291;-77
2023/02/07 07:56:35;;;;;;;34.67;15.00;;;;;;;;;;5044255;28;20276;-78
2023/02/07 07:59:01;;;;;;;34.40;13.37;;;;;;;;;;5043820;28;20434;-77
2023/02/07 08:01:30;;;;;;;29.23;12.77;;;;;;;;;;5026703;28;20037;-78
2023/02/07 08:03:59;;;;;;;24.47;12.23;;;;;;;;;;5046793;28;20281;-79
2023/02/07 08:06:25;;;;;;;30.13;16.13;;;;;;;;;;5043072;28;21979;-78
2023/02/07 08:08:53;;;;;;;29.57;16.70;;;;;;;;;;5044964;28;20894;-78
2023/02/07 08:11:19;;;;;;;41.50;20.17;;;;;;;;;;5044130;28;20268;-79
2023/02/07 08:13:45;;;;;;;34.10;17.60;;;;;;;;;;5027583;28;20399;-78
2023/02/07 08:16:11;;;;;;;34.77;18.63;;;;;;;;;;5032195;28;20040;-79
2023/02/07 08:18:42;;;;;;;30.27;17.30;;;;;;;;;;5042185;28;20466;-78
2023/02/07 08:21:08;;;;;;;32.13;16.00;;;;;;;;;;5043420;28;20823;-77
2023/02/07 08:23:36;;;;;;;25.80;14.67;;;;;;;;;;5033722;28;20829;-78
2023/02/07 08:26:05;;;;;;;27.40;13.70;;;;;;;;;;5030083;28;20302;-78
2023/02/07 08:28:32;;;;;;;24.30;13.77;;;;;;;;;;5028613;28;20320;-79
2023/02/07 08:31:02;;;;;;;32.97;16.83;;;;;;;;;;5028403;28;20288;-78
2023/02/07 08:33:28;;;;;;;28.37;16.03;;;;;;;;;;5046532;28;20384;-77
2023/02/07 08:35:54;;;;;;;27.37;13.80;;;;;;;;;;5043855;28;20766;-78
2023/02/07 08:38:20;;;;;;;31.03;16.03;;;;;;;;;;5043807;28;20273;-77
2023/02/07 08:40:46;;;;;;;22.63;13.17;;;;;;;;;;5030472;28;20022;-78
2023/02/07 08:43:17;;;;;;;28.80;13.97;;;;;;;;;;5033445;28;20332;-78
2023/02/07 08:45:45;;;;;;;19.77;11.60;;;;;;;;;;5034357;28;20325;-78
2023/02/07 08:48:11;;;;;;;18.90;10.67;;;;;;;;;;5031499;28;20276;-79
2023/02/07 08:50:40;;;;;;;17.60;10.80;;;;;;;;;;5051859;28;20271;-79
2023/02/07 08:53:06;;;;;;;19.07;12.13;;;;;;;;;;5036495;28;20272;-79
2023/02/07 08:55:32;;;;;;;20.20;11.43;;;;;;;;;;5039126;28;20284;-78
2023/02/07 08:58:01;;;;;;;19.80;10.83;;;;;;;;;;5040132;28;20748;-79
2023/02/07 09:00:26;;;;;;;21.17;11.93;;;;;;;;;;5032389;28;20697;-79
2023/02/07 09:02:52;;;;;;;17.53;9.67;;;;;;;;;;5036141;28;20322;-79
2023/02/07 09:05:18;;;;;;;17.67;8.83;;;;;;;;;;5060313;28;20060;-79
2023/02/07 09:07:44;;;;;;;14.77;8.77;;;;;;;;;;5035511;28;20053;-79
2023/02/07 09:10:11;;;;;;;14.43;9.57;;;;;;;;;;5056891;28;20029;-79
2023/02/07 09:12:37;;;;;;;10.70;8.27;;;;;;;;;;5035952;28;20278;-79
2023/02/07 09:15:03;;;;;;;12.97;9.07;;;;;;;;;;5042321;28;20311;-79
2023/02/07 09:17:29;;;;;;;11.77;8.07;;;;;;;;;;5043898;28;20279;-79
2023/02/07 09:19:55;;;;;;;13.40;8.13;;;;;;;;;;5053627;28;20283;-80
2023/02/07 09:22:21;;;;;;;13.57;7.53;;;;;;;;;;5025712;28;20609;-79
2023/02/07 09:24:48;;;;;;;10.43;7.13;;;;;;;;;;5057334;28;20038;-78
2023/02/07 09:27:14;;;;;;;12.97;7.70;;;;;;;;;;5053523;28;20287;-78
2023/02/07 09:29:40;;;;;;;12.13;7.53;;;;;;;;;;5035440;28;20272;-78
2023/02/07 09:32:06;;;;;;;16.10;10.67;;;;;;;;;;5056836;28;20290;-79
2023/02/07 09:34:33;;;;;;;14.57;9.40;;;;;;;;;;5042746;28;20029;-78
2023/02/07 09:36:59;;;;;;;11.57;7.77;;;;;;;;;;5046468;28;20263;-78
2023/02/07 09:39:26;;;;;;;9.93;7.10;;;;;;;;;;5061909;28;20260;-79
2023/02/07 09:42:04;;;;;;;14.30;8.07;;;;;;;;;;5035411;28;20029;-78
2023/02/07 09:44:42;;;;;;;17.67;7.63;;;;;;;;;;5048082;28;20615;-78
2023/02/07 09:47:14;;;;;;;12.70;7.87;;;;;;;;;;5043242;28;20281;-79
2023/02/07 09:49:59;;;;;;;12.30;7.50;;;;;;;;;;5041158;28;20283;-79
2023/02/07 09:52:28;;;;;;;11.67;7.87;;;;;;;;;;5056270;28;20387;-79
2023/02/07 09:54:56;;;;;;;16.60;8.93;;;;;;;;;;5065713;28;20668;-80
2023/02/07 09:57:22;;;;;;;12.40;7.47;;;;;;;;;;5052396;28;20272;-80
2023/02/07 09:59:57;;;;;;;11.73;8.17;;;;;;;;;;5046376;28;20286;-79
2023/02/07 10:02:29;;;;;;;10.83;7.13;;;;;;;;;;5032382;28;20476;-80
2023/02/07 10:04:57;;;;;;;11.37;7.57;;;;;;;;;;5046707;28;20460;-79
2023/02/07 10:07:23;;;;;;;12.63;7.40;;;;;;;;;;5042139;28;20272;-79
2023/02/07 10:09:49;;;;;;;11.07;7.97;;;;;;;;;;5042148;28;20339;-79
2023/02/07 10:12:18;;;;;;;12.13;8.60;;;;;;;;;;5036288;28;20347;-80
2023/02/07 10:15:02;;;;;;;12.70;8.10;;;;;;;;;;5039144;28;20343;-79
2023/02/07 10:17:39;;;;;;;11.53;7.80;;;;;;;;;;5044683;28;20311;-78
2023/02/07 10:20:18;;;;;;;14.40;8.13;;;;;;;;;;5025890;28;20605;-78
2023/02/07 10:22:50;;;;;;;9.20;6.80;;;;;;;;;;5028030;28;20304;-79
2023/02/07 10:25:22;;;;;;;10.70;7.30;;;;;;;;;;5042798;28;20276;-78
2023/02/07 10:27:56;;;;;;;11.20;7.18;;;;;;;;;;5024635;28;20030;-77
2023/02/07 10:30:28;;;;;;;8.27;6.10;;;;;;;;;;5043889;28;20040;-77
2023/02/07 10:32:58;;;;;;;10.48;6.43;;;;;;;;;;5043264;28;20268;-79
2023/02/07 10:35:29;;;;;;;13.00;6.73;;;;;;;;;;5046154;28;20048;-79
2023/02/07 10:37:57;;;;;;;12.40;7.33;;;;;;;;;;5046766;28;20288;-78
2023/02/07 10:40:28;;;;;;;14.67;7.97;;;;;;;;;;5046264;28;20605;-79
2023/02/07 10:42:59;;;;;;;16.93;8.77;;;;;;;;;;5045901;28;20279;-78
2023/02/07 10:45:25;;;;;;;19.50;11.60;;;;;;;;;;5028954;28;20307;-78
2023/02/07 10:47:51;;;;;;;12.23;7.77;;;;;;;;;;5029006;28;20755;-78
2023/02/07 10:50:19;;;;;;;13.07;7.67;;;;;;;;;;5043419;28;20272;-79
2023/02/07 10:52:49;;;;;;;10.47;6.63;;;;;;;;;;5042170;28;20033;-78
2023/02/07 10:55:18;;;;;;;17.50;14.17;;;;;;;;;;5044796;28;20292;-78
2023/02/07 10:57:51;;;;;;;10.10;7.70;;;;;;;;;;5031905;28;20289;-79
2023/02/07 11:00:28;;;;;;;9.93;6.47;;;;;;;;;;5028434;28;20276;-78
2023/02/07 11:03:07;;;;;;;9.70;6.83;;;;;;;;;;5043969;28;20273;-78
2023/02/07 11:05:38;;;;;;;8.23;5.90;;;;;;;;;;5046007;28;20299;-78
2023/02/07 11:08:06;;;;;;;9.27;5.93;;;;;;;;;;5045196;28;20275;-80
2023/02/07 11:10:33;;;;;;;9.20;6.17;;;;;;;;;;5044984;28;21071;-79
2023/02/07 11:13:00;;;;;;;12.43;6.70;;;;;;;;;;5047086;28;20272;-78
2023/02/07 11:15:46;;;;;;;8.83;6.30;;;;;;;;;;5044166;28;20285;-79
2023/02/07 11:18:36;;;;;;;10.67;5.63;;;;;;;;;;5047513;28;20331;-79
2023/02/07 11:21:02;;;;;;;6.87;5.07;;;;;;;;;;5048105;28;20043;-78
2023/02/07 11:23:28;;;;;;;10.07;6.30;;;;;;;;;;5047489;28;20322;-78
2023/02/07 11:25:56;;;;;;;11.20;6.53;;;;;;;;;;5033559;28;20033;-77
2023/02/07 11:28:29;;;;;;;8.57;5.40;;;;;;;;;;5048121;28;20237;-79
2023/02/07 11:30:57;;;;;;;8.83;5.33;;;;;;;;;;5049700;28;20315;-79
2023/02/07 11:33:25;;;;;;;9.93;5.37;;;;;;;;;;5042531;28;20276;-78
2023/02/07 11:36:03;;;;;;;9.77;5.23;;;;;;;;;;5030885;28;20285;-78
2023/02/07 11:38:29;;;;;;;7.83;5.73;;;;;;;;;;5046055;28;21063;-79
2023/02/07 11:41:02;;;;;;;7.80;5.30;;;;;;;;;;5044162;28;20022;-79
2023/02/07 11:43:29;;;;;;;8.83;5.40;;;;;;;;;;5047334;28;20276;-79
2023/02/07 11:45:59;;;;;;;9.57;6.23;;;;;;;;;;5045945;28;20033;-77
2023/02/07 11:48:29;;;;;;;6.40;5.17;;;;;;;;;;5045588;28;20033;-77
2023/02/07 11:50:57;;;;;;;9.53;7.37;;;;;;;;;;5041343;28;20082;-78
2023/02/07 11:53:38;;;;;;;11.67;7.50;;;;;;;;;;5045343;28;20059;-78
2023/02/07 11:56:04;;;;;;;10.60;6.17;;;;;;;;;;5047395;28;20037;-78
2023/02/07 11:58:36;;;;;;;10.13;6.43;;;;;;;;;;5047682;28;20041;-78
2023/02/07 12:01:03;;;;;;;11.88;6.65;;;;;;;;;;5049591;28;20037;-78
2023/02/07 12:03:41;;;;;;;13.53;5.93;;;;;;;;;;5044959;28;20366;-77
2023/02/07 12:06:08;;;;;;;11.70;6.67;;;;;;;;;;5025367;28;20033;-77
2023/02/07 12:08:37;;;;;;;11.23;5.70;;;;;;;;;;5040463;28;20037;-78
2023/02/07 12:11:29;;;;;;;12.13;6.00;;;;;;;;;;5040933;28;20446;-78
2023/02/07 12:13:58;;;;;;;10.02;6.20;;;;;;;;;;5039761;28;20033;-77
2023/02/07 12:16:46;;;;;;;12.83;6.23;;;;;;;;;;5045138;28;21669;-78
2023/02/07 12:19:17;;;;;;;11.93;5.80;;;;;;;;;;5028590;28;20041;-78
2023/02/07 12:21:59;;;;;;;11.93;5.60;;;;;;;;;;5042327;28;20033;-78
2023/02/07 12:24:32;;;;;;;10.93;5.78;;;;;;;;;;5043785;28;20041;-79
2023/02/07 12:26:58;;;;;;;;;;;;;;;;;;5045910;28;20045;-78
2023/02/07 12:29:33;;;;;;;15.23;4.80;;;;;;;;;;5042365;28;19909;-79
2023/02/07 12:32:08;;;;;;;8.93;5.50;;;;;;;;;;5042123;28;20029;-78
2023/02/07 12:34:48;;;;;;;11.83;6.10;;;;;;;;;;5027012;28;20038;-79
2023/02/07 12:37:23;;;;;;;13.87;5.93;;;;;;;;;;5042173;28;20026;-79
2023/02/07 12:40:09;;;;;;;9.37;5.57;;;;;;;;;;5043689;28;20115;-79
2023/02/07 12:42:44;;;;;;;8.97;5.27;;;;;;;;;;5028587;28;20040;-78
2023/02/07 12:45:20;;;;;;;8.37;5.10;;;;;;;;;;5029652;28;20045;-79
2023/02/07 12:47:46;;;;;;;8.03;4.87;;;;;;;;;;5047848;28;20033;-79
2023/02/07 12:50:15;;;;;;;7.53;4.97;;;;;;;;;;5025398;28;20351;-77
2023/02/07 12:52:41;;;;;;;10.30;5.50;;;;;;;;;;5044312;28;20032;-78
2023/02/07 12:55:11;;;;;;;7.63;5.00;;;;;;;;;;5044841;28;20025;-79
2023/02/07 12:57:49;;;;;;;7.53;5.50;;;;;;;;;;5025514;28;20026;-78
2023/02/07 13:00:45;;;;;;;10.47;5.60;;;;;;;;;;5041942;28;20033;-78
2023/02/07 13:03:14;;;;;;;8.87;4.90;;;;;;;;;;5045949;28;20071;-78
2023/02/07 13:05:40;;;;;;;7.10;5.07;;;;;;;;;;5043620;28;20026;-78
2023/02/07 13:08:12;;;;;;;10.03;5.87;;;;;;;;;;5046354;28;20063;-79
2023/02/07 13:10:46;;;;;;;8.73;5.45;;;;;;;;;;5042859;28;20083;-78
2023/02/07 13:13:22;;;;;;;9.30;5.13;;;;;;;;;;5045984;28;20034;-77
2023/02/07 13:16:20;;;;;;;7.77;5.30;;;;;;;;;;5042108;28;20069;-78
2023/02/07 13:18:54;;;;;;;8.33;4.87;;;;;;;;;;5009658;28;20036;-79
2023/02/07 13:21:20;;;;;;;6.23;4.87;;;;;;;;;;5042940;28;20029;-77
2023/02/07 13:23:47;;;;;;;7.30;4.97;;;;;;;;;;5027699;28;20025;-78
2023/02/07 13:26:16;;;;;;;8.50;5.30;;;;;;;;;;5041983;28;20104;-78
2023/02/07 13:28:45;;;;;;;8.37;5.13;;;;;;;;;;5028591;28;20067;-77
2023/02/07 13:31:13;;;;;;;9.03;4.90;;;;;;;;;;5044870;28;20087;-78
2023/02/07 13:33:40;;;;;;;6.30;4.63;;;;;;;;;;5044836;28;20509;-78
2023/02/07 13:36:19;;;;;;;9.00;5.53;;;;;;;;;;5050238;28;20034;-78
2023/02/07 13:38:58;;;;;;;8.97;4.53;;;;;;;;;;5043366;28;20026;-78
2023/02/07 13:41:54;;;;;;;8.03;4.90;;;;;;;;;;5041737;28;20446;-78
2023/02/07 13:44:25;;;;;;;8.17;5.40;;;;;;;;;;5031811;28;20084;-80
2023/02/07 13:47:05;;;;;;;11.17;5.90;;;;;;;;;;5046066;28;20033;-78
2023/02/07 13:49:31;;;;;;;10.10;6.17;;;;;;;;;;5040757;28;20029;-78
2023/02/07 13:52:08;;;;;;;7.60;4.87;;;;;;;;;;5039500;28;20028;-78
2023/02/07 13:54:49;;;;;;;7.90;4.57;;;;;;;;;;5047244;28;20087;-79
2023/02/07 14:00:23;;;;;;;12.10;6.93;;;;;;;;;;5025782;28;20041;-79
2023/02/07 14:02:54;;;;;;;7.70;5.43;;;;;;;;;;5029348;28;20022;-78
2023/02/07 14:05:26;;;;;;;7.83;6.37;;;;;;;;;;5054671;28;20069;-78
2023/02/07 14:08:03;;;;;;;26.05;23.65;;;;;;;;;;5044760;28;20121;-78
2023/02/07 14:10:44;;;;;;;8.53;7.63;;;;;;;;;;5051774;28;20041;-78
2023/02/07 14:13:25;;;;;;;9.87;6.87;;;;;;;;;;5045799;28;20026;-76
2023/02/07 14:15:56;;;;;;;8.33;4.33;;;;;;;;;;5044098;28;20439;-79
2023/02/07 14:18:41;;;;;;;9.33;4.93;;;;;;;;;;5034756;28;20033;-79
2023/02/07 14:21:16;;;;;;;8.33;5.63;;;;;;;;;;5052342;28;20036;-78
2023/02/07 14:24:02;;;;;;;6.70;4.77;;;;;;;;;;5051000;28;20028;-79
2023/02/07 14:26:37;;;;;;;14.20;10.13;;;;;;;;;;5035502;28;20484;-79
2023/02/07 14:29:22;;;;;;;11.20;9.10;;;;;;;;;;5051499;28;20065;-78
2023/02/07 14:31:49;;;;;;;13.50;10.70;;;;;;;;;;5050499;28;20030;-78
2023/02/07 14:34:15;;;;;;;10.00;7.47;;;;;;;;;;5024802;28;20094;-79
2023/02/07 14:36:42;;;;;;;10.97;9.43;;;;;;;;;;5048157;28;20028;-77
2023/02/07 14:39:11;;;;;;;9.93;5.07;;;;;;;;;;5035662;28;20048;-79
2023/02/07 14:41:38;;;;;;;6.13;4.50;;;;;;;;;;5034082;28;20036;-79